Fedhaven, Florida
Current Conditions -  °F | °C
As of 8:50 AM on Friday 24 Oct 2014 (Local Time) from KBOW Reporting Station
Clear Clear  
Wind Chill: 18°   Ceiling: Unl
Heat Index: 18°   Visibility: 10mi
Dew Point: 13°   Wind: 8mph
Humidity: 73%   Direction: 360°N
Pressure: 29.99"   Gusts: NA
Location:  27.86°N, 81.41°W
Report Text: KBOW 241250Z 36007KT 10SM SKC 18/13 A2999
Loading
Personal Weather Stations






























Interactive Weather Map
Tropical Storm Tracking
New forecast layout! Learn more

10-Day Weather Forecast

Advertisements
Track Severe Weather on mobile